Time;durP1;ratioP1;P1;durP2;ratioP2;P2;SDS_P1;SDS_P2;PMS_P1;PMS_P2;Temp;Humidity;BMP_temperature;BMP_pressure;BME280_temperature;BME280_humidity;BME280_pressure;Samples;Min_cycle;Max_cycle;Signal;HPM_P1;HPM_P2
2023/06/30 00:01:12;;;;;;;15.23;7.77;;;;;;;20.82;100.00;100243.31;5135726;28;20023;-74
2023/06/30 00:03:45;;;;;;;16.63;8.13;;;;;;;20.85;100.00;100251.03;5137407;28;20835;-75
2023/06/30 00:06:15;;;;;;;14.77;8.20;;;;;;;20.76;100.00;100249.13;5135993;28;20550;-74
2023/06/30 00:08:45;;;;;;;18.02;8.77;;;;;;;20.63;100.00;100248.44;5134854;28;20031;-74
2023/06/30 00:11:17;;;;;;;15.63;8.90;;;;;;;20.58;100.00;100249.78;5137028;28;20374;-74
2023/06/30 00:13:47;;;;;;;17.10;8.65;;;;;;;20.75;100.00;100253.59;5119802;28;20113;-74
2023/06/30 00:16:18;;;;;;;17.45;9.00;;;;;;;20.77;100.00;100248.16;5137512;28;20069;-75
2023/06/30 00:18:48;;;;;;;19.48;9.32;;;;;;;20.71;100.00;100251.34;5135070;28;20057;-73
2023/06/30 00:21:19;;;;;;;16.50;9.30;;;;;;;20.64;100.00;100246.66;5137804;28;20027;-74
2023/06/30 00:23:49;;;;;;;20.27;9.00;;;;;;;20.64;100.00;100239.50;5135357;28;20656;-73
2023/06/30 00:26:19;;;;;;;14.35;8.32;;;;;;;20.67;100.00;100232.13;5135697;28;20370;-74
2023/06/30 00:28:50;;;;;;;18.45;8.85;;;;;;;20.52;100.00;100237.88;5134072;28;20038;-73
2023/06/30 00:31:20;;;;;;;16.30;8.97;;;;;;;20.52;100.00;100240.53;5132386;28;20509;-74
2023/06/30 00:33:50;;;;;;;15.57;9.30;;;;;;;20.57;100.00;100229.50;5140034;28;20278;-74
2023/06/30 00:36:21;;;;;;;18.13;9.68;;;;;;;20.49;100.00;100235.44;5140775;28;20035;-74
2023/06/30 00:38:51;;;;;;;17.33;8.40;;;;;;;20.55;100.00;100228.78;5121299;28;20027;-74
2023/06/30 00:41:22;;;;;;;16.00;8.93;;;;;;;20.70;100.00;100239.03;5138053;28;20031;-74
2023/06/30 00:43:52;;;;;;;17.48;9.70;;;;;;;20.43;100.00;100230.66;5139092;28;20045;-74
2023/06/30 00:46:22;;;;;;;17.58;8.77;;;;;;;20.46;100.00;100234.88;5140405;28;20031;-74
2023/06/30 00:48:53;;;;;;;20.48;10.13;;;;;;;20.54;100.00;100237.72;5120911;28;20030;-74
2023/06/30 00:51:23;;;;;;;19.70;9.57;;;;;;;20.65;100.00;100241.19;5140331;28;20026;-74
2023/06/30 00:53:54;;;;;;;17.13;9.60;;;;;;;20.75;100.00;100237.66;5140731;28;20033;-74
2023/06/30 00:56:25;;;;;;;21.08;9.80;;;;;;;20.65;100.00;100245.69;5122765;28;20038;-74
2023/06/30 00:58:57;;;;;;;21.45;10.68;;;;;;;20.55;100.00;100250.91;5137154;28;20034;-74
2023/06/30 01:01:40;;;;;;;21.98;10.80;;;;;;;20.65;100.00;100246.50;5137965;28;20110;-74
2023/06/30 01:04:44;;;;;;;18.83;9.55;;;;;;;20.57;100.00;100248.09;5136313;28;20077;-74
2023/06/30 01:07:43;;;;;;;23.70;10.98;;;;;;;20.71;100.00;100240.72;5137660;28;20031;-74
2023/06/30 01:10:21;;;;;;;19.17;10.10;;;;;;;20.69;100.00;100250.63;5113425;28;20407;-74
2023/06/30 01:12:51;;;;;;;17.80;9.70;;;;;;;20.75;100.00;100244.78;5136777;28;20488;-74
2023/06/30 01:15:22;;;;;;;22.15;10.65;;;;;;;20.69;100.00;100232.84;5139550;28;20033;-75
2023/06/30 01:17:56;;;;;;;16.02;9.15;;;;;;;20.66;100.00;100234.09;5137612;28;20023;-74
2023/06/30 01:20:32;;;;;;;19.48;10.52;;;;;;;20.58;100.00;100241.81;5122031;28;20036;-74
2023/06/30 01:23:15;;;;;;;18.95;10.57;;;;;;;20.52;100.00;100243.19;5138834;28;20034;-74
2023/06/30 01:25:48;;;;;;;17.08;9.93;;;;;;;20.56;100.00;100241.97;5139270;28;20409;-74
2023/06/30 01:28:18;;;;;;;20.65;10.60;;;;;;;20.57;100.00;100238.34;5138863;28;20030;-74
2023/06/30 01:30:50;;;;;;;17.25;9.98;;;;;;;20.56;100.00;100223.38;5138363;28;20515;-73
2023/06/30 01:33:21;;;;;;;18.98;9.50;;;;;;;20.47;100.00;100225.94;5139552;28;20031;-74
2023/06/30 01:35:51;;;;;;;18.85;9.55;;;;;;;20.56;100.00;100223.38;5136598;28;20088;-74
2023/06/30 01:38:22;;;;;;;21.63;11.13;;;;;;;20.38;100.00;100232.84;5138084;28;20035;-74
2023/06/30 01:40:52;;;;;;;21.73;10.45;;;;;;;20.35;100.00;100227.78;5119634;28;20481;-75
2023/06/30 01:43:24;;;;;;;18.98;9.80;;;;;;;20.58;100.00;100224.09;5121627;28;20113;-74
2023/06/30 01:45:55;;;;;;;20.55;10.60;;;;;;;20.47;100.00;100233.91;5136393;28;20034;-74
2023/06/30 01:48:27;;;;;;;20.65;10.35;;;;;;;20.38;100.00;100234.63;5138180;28;20493;-74
2023/06/30 01:50:59;;;;;;;20.48;10.77;;;;;;;20.39;100.00;100250.47;5138180;28;20037;-74
2023/06/30 01:53:29;;;;;;;20.50;10.25;;;;;;;20.48;100.00;100244.38;5139489;28;20046;-74
2023/06/30 01:55:59;;;;;;;21.65;10.48;;;;;;;20.35;100.00;100253.47;5138379;28;20489;-74
2023/06/30 01:58:31;;;;;;;24.02;11.43;;;;;;;20.30;100.00;100253.84;5136786;28;20031;-74
2023/06/30 02:01:02;;;;;;;21.42;10.32;;;;;;;20.26;100.00;100254.22;5137669;28;20295;-74
2023/06/30 02:03:33;;;;;;;19.45;11.00;;;;;;;20.19;100.00;100243.25;5138437;28;20086;-74
2023/06/30 02:06:03;;;;;;;21.92;11.30;;;;;;;20.18;100.00;100244.22;5137472;28;20058;-74
2023/06/30 02:08:33;;;;;;;22.33;11.90;;;;;;;20.07;100.00;100230.09;5135969;28;20386;-74
2023/06/30 02:11:03;;;;;;;21.25;10.48;;;;;;;19.98;100.00;100220.19;5119331;28;20046;-74
2023/06/30 02:13:34;;;;;;;21.77;10.98;;;;;;;20.13;100.00;100224.31;5138455;28;20723;-74
2023/06/30 02:16:04;;;;;;;22.30;12.20;;;;;;;20.23;100.00;100220.81;5136906;28;20031;-74
2023/06/30 02:18:39;;;;;;;21.83;11.45;;;;;;;20.20;100.00;100225.50;5137582;28;20694;-74
2023/06/30 02:21:09;;;;;;;26.73;11.65;;;;;;;20.18;100.00;100230.97;5119393;28;20038;-74
2023/06/30 02:23:40;;;;;;;23.70;12.20;;;;;;;20.09;100.00;100225.53;5137563;28;20035;-75
2023/06/30 02:26:10;;;;;;;23.60;12.23;;;;;;;19.95;100.00;100226.59;5136331;28;20155;-73
2023/06/30 02:28:40;;;;;;;22.50;12.10;;;;;;;19.83;100.00;100224.94;5137804;28;20053;-74
2023/06/30 02:31:11;;;;;;;26.60;13.10;;;;;;;19.95;100.00;100220.44;5136388;28;20061;-74
2023/06/30 02:33:41;;;;;;;26.08;12.38;;;;;;;20.05;100.00;100224.94;5139329;28;20121;-74
2023/06/30 02:36:11;;;;;;;20.83;10.90;;;;;;;20.02;100.00;100225.19;5137055;28;20031;-73
2023/06/30 02:38:42;;;;;;;25.55;11.98;;;;;;;20.10;100.00;100232.53;5136657;28;20447;-74
2023/06/30 02:41:12;;;;;;;27.38;13.27;;;;;;;20.15;100.00;100223.22;5137091;28;20027;-74
2023/06/30 02:43:43;;;;;;;28.80;14.38;;;;;;;20.13;100.00;100226.97;5133831;28;20027;-74
2023/06/30 02:46:13;;;;;;;28.52;13.20;;;;;;;20.04;100.00;100225.03;5120025;28;20026;-74
2023/06/30 02:48:44;;;;;;;29.42;12.95;;;;;;;20.16;100.00;100226.72;5136789;28;20122;-74
2023/06/30 02:51:14;;;;;;;24.20;12.35;;;;;;;20.13;100.00;100224.31;5137515;28;20031;-74
2023/06/30 02:53:44;;;;;;;24.67;12.75;;;;;;;20.13;100.00;100214.53;5142373;28;20458;-73
2023/06/30 02:56:14;;;;;;;27.55;13.73;;;;;;;20.09;100.00;100212.28;5116147;28;20049;-74
2023/06/30 02:58:45;;;;;;;23.80;12.77;;;;;;;20.04;100.00;100209.13;5136460;28;20605;-72
2023/06/30 03:01:15;;;;;;;26.08;13.27;;;;;;;19.97;100.00;100215.88;5118303;28;20035;-74
2023/06/30 03:03:46;;;;;;;27.65;12.15;;;;;;;20.13;100.00;100222.50;5137434;28;20026;-73
2023/06/30 03:06:17;;;;;;;25.98;12.60;;;;;;;20.00;100.00;100226.22;5137265;28;20109;-74
2023/06/30 03:08:47;;;;;;;25.35;13.75;;;;;;;20.05;100.00;100229.38;5133975;28;20106;-73
2023/06/30 03:11:17;;;;;;;25.65;13.52;;;;;;;20.04;100.00;100233.88;5135631;28;20260;-73
2023/06/30 03:13:48;;;;;;;24.33;13.00;;;;;;;19.94;100.00;100232.84;5136449;28;20035;-71
2023/06/30 03:16:18;;;;;;;25.50;12.93;;;;;;;20.09;100.00;100236.16;5138453;28;20042;-75
2023/06/30 03:18:49;;;;;;;26.65;13.73;;;;;;;20.03;100.00;100248.09;5143223;28;20049;-72
2023/06/30 03:21:19;;;;;;;30.07;14.03;;;;;;;20.02;100.00;100243.75;5138867;28;20425;-74
2023/06/30 03:23:49;;;;;;;28.85;14.02;;;;;;;19.85;100.00;100232.75;5136973;28;20293;-74
2023/06/30 03:26:20;;;;;;;27.65;13.90;;;;;;;19.79;100.00;100226.09;5134917;28;20031;-74
2023/06/30 03:28:50;;;;;;;29.77;14.43;;;;;;;19.89;100.00;100221.78;5115884;28;20316;-73
2023/06/30 03:31:20;;;;;;;29.48;14.00;;;;;;;19.91;100.00;100218.97;5134423;28;20286;-75
2023/06/30 03:33:51;;;;;;;27.23;14.25;;;;;;;19.90;100.00;100220.81;5132062;28;20027;-74
2023/06/30 03:36:21;;;;;;;29.35;13.73;;;;;;;19.95;100.00;100215.97;5134673;28;20461;-74
2023/06/30 03:38:51;;;;;;;29.48;13.70;;;;;;;19.89;100.00;100224.44;5132367;28;20109;-73
2023/06/30 03:41:22;;;;;;;31.63;14.88;;;;;;;19.86;100.00;100211.41;5132163;28;20065;-72
2023/06/30 03:43:52;;;;;;;29.48;13.93;;;;;;;19.95;100.00;100208.00;5133205;28;20073;-73
2023/06/30 03:46:22;;;;;;;27.45;13.73;;;;;;;19.97;100.00;100208.72;5134487;28;20030;-73
2023/06/30 03:48:53;;;;;;;31.58;15.20;;;;;;;20.04;100.00;100207.31;5133031;28;20417;-73
2023/06/30 03:51:23;;;;;;;29.67;14.35;;;;;;;20.01;100.00;100217.31;5134650;28;20066;-74
2023/06/30 03:53:53;;;;;;;27.35;13.90;;;;;;;19.90;100.00;100209.34;5137005;28;20109;-74
2023/06/30 03:56:24;;;;;;;28.45;13.82;;;;;;;19.93;100.00;100204.63;5138102;28;20799;-75
2023/06/30 03:58:54;;;;;;;32.03;14.70;;;;;;;20.01;100.00;100207.53;5132888;28;20027;-75
2023/06/30 04:01:25;;;;;;;27.63;14.87;;;;;;;19.91;100.00;100211.88;5138696;28;20049;-75
2023/06/30 04:03:56;;;;;;;31.40;14.20;;;;;;;20.04;100.00;100217.94;5139783;28;20826;-74
2023/06/30 04:06:26;;;;;;;29.52;14.40;;;;;;;20.06;100.00;100215.16;5140766;28;20280;-75
2023/06/30 04:08:56;;;;;;;27.73;14.30;;;;;;;20.13;100.00;100213.72;5120665;28;20018;-74
2023/06/30 04:11:26;;;;;;;31.90;14.43;;;;;;;20.13;100.00;100217.19;5119647;28;20070;-73
2023/06/30 04:13:59;;;;;;;29.70;14.35;;;;;;;20.05;100.00;100218.78;5136532;28;20656;-74
2023/06/30 04:16:29;;;;;;;31.65;14.20;;;;;;;20.00;100.00;100224.44;5140700;28;20035;-75
2023/06/30 04:18:59;;;;;;;34.88;14.52;;;;;;;19.92;100.00;100218.88;5138456;28;20042;-73
2023/06/30 04:21:30;;;;;;;29.58;15.02;;;;;;;19.97;100.00;100223.81;5121383;28;20117;-74
2023/06/30 04:24:00;;;;;;;28.67;14.68;;;;;;;19.97;100.00;100211.38;5141511;28;20122;-73
2023/06/30 04:26:31;;;;;;;23.33;13.93;;;;;;;20.13;100.00;100219.84;5142471;28;20026;-74
2023/06/30 04:29:02;;;;;;;31.83;14.93;;;;;;;20.09;100.00;100218.41;5140439;28;20122;-74
2023/06/30 04:31:32;;;;;;;29.50;14.40;;;;;;;20.11;100.00;100211.16;5123944;28;20546;-75
2023/06/30 04:34:02;;;;;;;30.27;14.27;;;;;;;20.14;100.00;100215.41;5133757;28;20034;-74
2023/06/30 04:36:33;;;;;;;26.60;14.55;;;;;;;20.13;100.00;100213.72;5136039;28;20416;-71
2023/06/30 04:39:03;;;;;;;27.13;14.55;;;;;;;20.01;100.00;100207.53;5136891;28;20118;-73
2023/06/30 04:41:33;;;;;;;29.70;15.20;;;;;;;20.04;100.00;100207.31;5137537;28;20074;-74
2023/06/30 04:44:04;;;;;;;31.08;15.15;;;;;;;19.95;100.00;100217.81;5142878;28;20030;-74
2023/06/30 04:46:34;;;;;;;26.85;14.55;;;;;;;20.03;100.00;100218.06;5138879;28;20049;-74
2023/06/30 04:49:04;;;;;;;30.38;14.68;;;;;;;20.04;100.00;100215.28;5121180;28;20244;-74
2023/06/30 04:51:35;;;;;;;28.27;14.77;;;;;;;20.00;100.00;100213.81;5144340;28;20044;-73
2023/06/30 04:54:05;;;;;;;32.22;14.80;;;;;;;19.99;100.00;100200.66;5140183;28;20036;-75
2023/06/30 04:56:36;;;;;;;32.78;15.70;;;;;;;20.04;100.00;100199.38;5142770;28;20035;-75
2023/06/30 04:59:06;;;;;;;31.27;15.55;;;;;;;19.98;100.00;100204.28;5144738;28;20023;-74
2023/06/30 05:01:36;;;;;;;31.73;15.98;;;;;;;19.87;100.00;100207.78;5122852;28;20085;-73
2023/06/30 05:04:07;;;;;;;28.27;14.27;;;;;;;19.88;100.00;100219.22;5141448;28;20118;-73
2023/06/30 05:06:38;;;;;;;31.13;16.58;;;;;;;19.78;100.00;100218.28;5143731;28;20692;-74
2023/06/30 05:09:08;;;;;;;31.35;15.25;;;;;;;19.84;100.00;100213.34;5139242;28;20037;-74
2023/06/30 05:11:38;;;;;;;27.88;15.23;;;;;;;19.88;100.00;100216.56;5135837;28;20030;-75
2023/06/30 05:14:09;;;;;;;28.95;13.93;;;;;;;19.89;100.00;100208.50;5120853;28;20556;-76
2023/06/30 05:16:39;;;;;;;31.65;16.58;;;;;;;19.80;100.00;100203.91;5143431;28;20421;-74
2023/06/30 05:19:09;;;;;;;27.23;15.13;;;;;;;19.85;100.00;100207.06;5140916;28;20122;-73
2023/06/30 05:21:40;;;;;;;28.67;15.13;;;;;;;19.88;100.00;100206.81;5139974;28;20022;-74
2023/06/30 05:24:10;;;;;;;29.42;13.68;;;;;;;19.95;100.00;100207.19;5142554;28;20022;-74
2023/06/30 05:26:41;;;;;;;25.25;13.38;;;;;;;19.93;100.00;100204.63;5140145;28;20160;-75
2023/06/30 05:29:11;;;;;;;26.05;14.05;;;;;;;19.95;100.00;100202.72;5137436;28;20023;-73
2023/06/30 05:31:41;;;;;;;25.02;13.82;;;;;;;19.93;100.00;100204.63;5142247;28;20034;-74
2023/06/30 05:34:15;;;;;;;29.35;13.70;;;;;;;19.92;100.00;100208.25;5143766;28;20605;-73
2023/06/30 05:36:45;;;;;;;24.25;13.27;;;;;;;19.85;100.00;100207.06;5132156;28;20186;-73
2023/06/30 05:39:16;;;;;;;25.38;13.40;;;;;;;19.86;100.00;100219.38;5133117;28;20497;-73
2023/06/30 05:41:46;;;;;;;29.20;14.60;;;;;;;19.81;100.00;100216.22;5139660;28;20683;-73
2023/06/30 05:44:16;;;;;;;28.08;13.63;;;;;;;19.79;100.00;100218.16;5136493;28;20088;-73
2023/06/30 05:46:47;;;;;;;26.73;14.38;;;;;;;19.62;100.00;100226.59;5135462;28;20593;-73
2023/06/30 05:49:17;;;;;;;30.65;14.38;;;;;;;19.53;100.00;100227.31;5139784;28;20105;-74
2023/06/30 05:51:48;;;;;;;29.23;14.63;;;;;;;19.54;100.00;100226.34;5143353;28;20566;-75
2023/06/30 05:54:18;;;;;;;28.50;14.45;;;;;;;19.37;100.00;100226.81;5120669;28;20038;-75
2023/06/30 05:56:49;;;;;;;31.35;14.30;;;;;;;19.32;100.00;100226.34;5124259;28;20462;-73
2023/06/30 05:59:19;;;;;;;32.10;14.65;;;;;;;19.39;100.00;100229.31;5128694;28;20031;-74
2023/06/30 06:01:49;;;;;;;26.10;13.25;;;;;;;19.48;100.00;100233.94;5146151;28;20673;-76
2023/06/30 06:04:20;;;;;;;22.88;11.38;;;;;;;19.40;100.00;100241.63;5134077;28;20035;-74
2023/06/30 06:06:50;;;;;;;23.38;11.55;;;;;;;19.28;100.00;100239.94;5139837;28;20035;-74
2023/06/30 06:09:20;;;;;;;24.58;10.10;;;;;;;19.11;100.00;100242.97;5140144;28;20031;-76
2023/06/30 06:11:50;;;;;;;23.85;8.45;;;;;;;18.83;100.00;100241.56;5141119;28;20113;-76
2023/06/30 06:14:21;;;;;;;19.98;8.77;;;;;;;18.80;100.00;100241.75;5147872;28;20030;-76
2023/06/30 06:16:51;;;;;;;15.48;7.95;;;;;;;18.62;100.00;100247.59;5145978;28;20034;-75
2023/06/30 06:19:22;;;;;;;16.30;7.68;;;;;;;18.43;100.00;100247.25;5145252;28;20049;-76
2023/06/30 06:21:52;;;;;;;17.83;7.43;;;;;;;18.31;100.00;100255.25;5141674;28;20022;-75
2023/06/30 06:24:22;;;;;;;15.98;7.20;;;;;;;18.29;100.00;100251.84;5139711;28;20444;-75
2023/06/30 06:26:53;;;;;;;14.13;7.05;;;;;;;18.34;100.00;100252.38;5146897;28;20065;-76
2023/06/30 06:29:23;;;;;;;14.25;6.68;;;;;;;18.36;100.00;100247.81;5145823;28;20436;-75
2023/06/30 06:31:53;;;;;;;14.60;6.03;;;;;;;18.29;100.00;100244.75;5143327;28;20019;-75
2023/06/30 06:34:24;;;;;;;17.00;7.70;;;;;;;18.40;100.00;100246.63;5121481;28;20031;-73
2023/06/30 06:36:54;;;;;;;12.73;5.93;;;;;;;18.41;100.00;100249.16;5141813;28;20023;-76
2023/06/30 06:39:24;;;;;;;12.30;6.03;;;;;;;18.47;100.00;100253.16;5141193;28;20082;-75
2023/06/30 06:41:56;;;;;;;13.55;5.90;;;;;;;18.48;100.00;100254.88;5141051;28;20029;-75
2023/06/30 06:44:26;;;;;;;12.25;5.47;;;;;;;18.51;100.00;100249.34;5134270;28;20081;-75
2023/06/30 06:47:34;;;;;;;10.88;5.40;;;;;;;18.47;100.00;100253.16;5148003;28;20046;-75
2023/06/30 06:50:04;;;;;;;11.40;5.38;;;;;;;18.52;100.00;100262.44;5142742;28;20033;-75
2023/06/30 06:52:35;;;;;;;8.95;4.88;;;;;;;18.51;100.00;100266.06;5137520;28;20031;-76
2023/06/30 06:55:05;;;;;;;9.88;5.20;;;;;;;18.54;100.00;100270.28;5141729;28;20057;-73
2023/06/30 06:57:36;;;;;;;9.85;5.18;;;;;;;18.36;100.00;100272.44;5128012;28;20050;-74
2023/06/30 07:00:07;;;;;;;9.40;4.63;;;;;;;18.45;100.00;100292.97;5143677;28;20031;-75
2023/06/30 07:02:37;;;;;;;9.23;4.40;;;;;;;18.49;100.00;100296.25;5137966;28;20054;-74
2023/06/30 07:05:07;;;;;;;6.68;3.47;;;;;;;18.35;100.00;100291.94;5142486;28;20090;-75
2023/06/30 07:07:38;;;;;;;6.95;3.80;;;;;;;18.45;100.00;100292.13;5136667;28;20046;-75
2023/06/30 07:10:08;;;;;;;6.25;3.25;;;;;;;18.36;100.00;100288.34;5140019;28;20030;-76
2023/06/30 07:12:38;;;;;;;6.05;3.05;;;;;;;18.30;100.00;100280.84;5140928;28;20037;-76
2023/06/30 07:15:09;;;;;;;7.95;3.03;;;;;;;18.38;100.00;100282.94;5152044;28;20026;-76
2023/06/30 07:17:40;;;;;;;7.78;3.40;;;;;;;18.28;100.00;100277.47;5140974;28;20497;-76
2023/06/30 07:20:11;;;;;;;5.43;2.67;;;;;;;18.26;100.00;100275.84;5147842;28;20027;-75
2023/06/30 07:22:41;;;;;;;5.15;2.97;;;;;;;18.36;100.00;100279.56;5139376;28;20839;-76
2023/06/30 07:25:11;;;;;;;3.72;2.40;;;;;;;18.40;100.00;100273.94;5122998;28;20019;-75
2023/06/30 07:27:51;;;;;;;4.90;2.50;;;;;;;18.34;100.00;100274.38;5143023;28;20340;-74
2023/06/30 07:30:26;;;;;;;5.50;2.45;;;;;;;18.47;100.00;100269.03;5146551;28;20058;-75
2023/06/30 07:32:57;;;;;;;4.88;2.67;;;;;;;18.46;100.00;100267.34;5124081;28;20019;-74
2023/06/30 07:35:27;;;;;;;4.88;2.50;;;;;;;18.56;100.00;100256.00;5146691;28;20082;-74
2023/06/30 07:37:57;;;;;;;4.88;2.55;;;;;;;18.54;100.00;100257.88;5122674;28;20041;-75
2023/06/30 07:40:28;;;;;;;4.95;2.53;;;;;;;18.65;100.00;100263.25;5148547;28;20026;-75
2023/06/30 07:42:58;;;;;;;5.28;2.67;;;;;;;18.73;100.00;100274.97;5142037;28;20030;-77
2023/06/30 07:45:28;;;;;;;4.90;2.70;;;;;;;18.70;100.00;100279.63;5144734;28;20034;-76
2023/06/30 07:47:58;;;;;;;5.40;2.42;;;;;;;18.77;100.00;100271.13;5143120;28;20082;-75
2023/06/30 07:50:29;;;;;;;8.05;2.70;;;;;;;18.78;100.00;100280.75;5160422;28;20027;-75
2023/06/30 07:53:02;;;;;;;4.57;2.45;;;;;;;18.82;100.00;100286.69;5144694;28;20053;-74
2023/06/30 07:55:33;;;;;;;4.72;2.40;;;;;;;18.80;100.00;100286.78;5144258;28;20027;-75
2023/06/30 07:58:03;;;;;;;5.72;2.50;;;;;;;18.85;100.00;100292.59;5142203;28;20027;-74
2023/06/30 08:00:33;;;;;;;3.70;2.63;;;;;;;18.85;100.00;100297.91;5127807;28;20031;-75
2023/06/30 08:03:04;;;;;;;6.78;2.63;;;;;;;18.73;100.00;100299.75;5126701;28;20035;-75
2023/06/30 08:05:34;;;;;;;3.88;1.90;;;;;;;18.56;100.00;100298.34;5149021;28;20058;-75
2023/06/30 08:08:05;;;;;;;2.97;1.67;;;;;;;18.42;100.00;100308.22;5153012;28;20019;-74
2023/06/30 08:10:35;;;;;;;3.00;1.48;;;;;;;18.24;100.00;100309.50;5144539;28;20049;-74
2023/06/30 08:13:05;;;;;;;2.88;1.50;;;;;;;18.06;100.00;100310.81;5144427;28;20041;-75
2023/06/30 08:15:35;;;;;;;4.10;1.58;;;;;;;17.97;100.00;100307.00;5118735;28;20042;-75
2023/06/30 08:18:06;;;;;;;4.53;1.58;;;;;;;18.00;100.00;100303.31;5136079;28;20062;-75
2023/06/30 08:20:36;;;;;;;4.57;1.55;;;;;;;17.97;100.00;100298.25;5138611;28;20082;-73
2023/06/30 08:23:07;;;;;;;3.50;1.27;;;;;;;18.00;100.00;100292.72;5134566;28;20744;-74
2023/06/30 08:25:37;;;;;;;3.92;1.63;;;;;;;17.92;100.00;100302.97;5127133;28;20085;-74
2023/06/30 08:28:08;;;;;;;5.93;1.50;;;;;;;17.94;100.00;100301.94;5143650;28;20042;-75
2023/06/30 08:30:38;;;;;;;3.22;1.33;;;;;;;17.99;100.00;100306.91;5153195;28;20069;-75
2023/06/30 08:33:08;;;;;;;2.08;1.30;;;;;;;18.10;100.00;100297.25;5142757;28;20033;-73
2023/06/30 08:35:39;;;;;;;2.00;1.30;;;;;;;17.96;100.00;100310.59;5144877;28;20051;-74
2023/06/30 08:38:09;;;;;;;2.47;1.65;;;;;;;18.02;100.00;100314.63;5149488;28;20094;-74
2023/06/30 08:40:39;;;;;;;4.45;1.73;;;;;;;18.02;100.00;100319.91;5145110;28;20035;-75
2023/06/30 08:43:13;;;;;;;3.85;1.70;;;;;;;18.19;100.00;100331.00;5143446;28;20027;-75
2023/06/30 08:45:48;;;;;;;4.65;2.13;;;;;;;18.11;100.00;100327.19;5145434;28;20027;-75
2023/06/30 08:48:20;;;;;;;5.50;2.15;;;;;;;18.22;100.00;100324.66;5146249;28;20023;-75
2023/06/30 08:50:52;;;;;;;5.13;2.17;;;;;;;18.20;100.00;100323.91;5128161;28;20047;-74
2023/06/30 08:53:24;;;;;;;4.55;2.40;;;;;;;18.33;100.00;100322.13;5136265;28;20065;-76
2023/06/30 08:55:57;;;;;;;4.18;2.33;;;;;;;18.39;100.00;100327.84;5143105;28;20031;-75
2023/06/30 08:58:28;;;;;;;4.28;2.67;;;;;;;18.45;100.00;100324.75;5140723;28;20027;-74
2023/06/30 09:00:59;;;;;;;6.03;2.92;;;;;;;18.44;100.00;100319.53;5136127;28;20229;-76
2023/06/30 09:03:29;;;;;;;6.85;3.28;;;;;;;18.28;100.00;100321.59;5137625;28;20043;-75
2023/06/30 09:06:00;;;;;;;6.45;3.30;;;;;;;18.28;100.00;100308.34;5138984;28;20034;-76
2023/06/30 09:09:02;;;;;;;5.05;3.50;;;;;;;18.45;100.00;100311.50;5139127;28;20034;-76
2023/06/30 09:11:33;;;;;;;5.60;3.47;;;;;;;18.53;100.00;100321.53;5138749;28;20172;-76
2023/06/30 09:14:05;;;;;;;6.20;3.22;;;;;;;18.61;100.00;100313.88;5138836;28;20027;-75
2023/06/30 09:16:35;;;;;;;7.07;3.28;;;;;;;18.59;100.00;100316.66;5122580;28;20547;-76
2023/06/30 09:19:06;;;;;;;5.38;3.28;;;;;;;18.58;100.00;100314.09;5138161;28;20117;-75
2023/06/30 09:21:38;;;;;;;5.32;3.30;;;;;;;18.58;100.00;100314.09;5122929;28;20088;-75
2023/06/30 09:24:08;;;;;;;6.57;3.92;;;;;;;18.52;100.00;100312.75;5136861;28;20074;-76
2023/06/30 09:26:38;;;;;;;5.88;3.65;;;;;;;18.64;100.00;100313.66;5137886;28;20320;-77
2023/06/30 09:29:09;;;;;;;6.32;3.70;;;;;;;18.60;100.00;100320.13;5137159;28;20117;-76
2023/06/30 09:31:40;;;;;;;5.68;3.95;;;;;;;18.61;100.00;100324.47;5140480;28;20073;-75
2023/06/30 09:34:12;;;;;;;6.97;3.97;;;;;;;18.79;100.00;100324.00;5133655;28;20026;-75
2023/06/30 09:36:50;;;;;;;7.28;4.60;;;;;;;18.76;100.00;100329.50;5120159;28;20026;-76
2023/06/30 09:39:22;;;;;;;8.05;4.35;;;;;;;18.83;100.00;100321.00;5137672;28;20039;-75
2023/06/30 09:41:53;;;;;;;6.57;4.40;;;;;;;18.86;100.00;100331.38;5137442;28;20027;-75
2023/06/30 09:44:23;;;;;;;7.20;4.68;;;;;;;18.55;100.00;100331.03;5137656;28;20053;-75
2023/06/30 09:46:54;;;;;;;7.63;4.80;;;;;;;18.60;100.00;100333.38;5135618;28;20030;-76
2023/06/30 09:49:32;;;;;;;8.90;5.30;;;;;;;18.58;100.00;100335.28;5139833;28;20046;-76
2023/06/30 09:52:03;;;;;;;8.88;5.70;;;;;;;18.56;100.00;100327.47;5134076;28;20452;-75
2023/06/30 09:54:36;;;;;;;7.40;5.25;;;;;;;18.70;100.00;100327.28;5117453;28;20429;-74
2023/06/30 09:57:07;;;;;;;7.88;5.60;;;;;;;18.94;100.00;100321.06;5139288;28;20505;-75
2023/06/30 09:59:38;;;;;;;8.88;5.50;;;;;;;18.88;100.00;100326.81;5118009;28;20395;-73
2023/06/30 10:02:10;;;;;;;9.15;5.00;;;;;;;18.95;100.00;100325.38;5135206;28;20027;-74
2023/06/30 10:04:41;;;;;;;7.45;5.38;;;;;;;19.19;100.00;100318.31;5120427;28;20031;-75
2023/06/30 10:07:13;;;;;;;13.20;5.38;;;;;;;19.22;100.00;100311.91;5135218;28;20033;-75
2023/06/30 10:09:47;;;;;;;7.03;4.68;;;;;;;19.32;100.00;100308.50;5115643;28;20023;-74
2023/06/30 10:12:18;;;;;;;6.15;4.13;;;;;;;19.32;100.00;100313.78;5135018;28;20029;-75
2023/06/30 10:14:51;;;;;;;5.43;3.70;;;;;;;19.49;100.00;100316.00;5136248;28;20038;-74
2023/06/30 10:17:21;;;;;;;6.18;3.92;;;;;;;19.37;100.00;100314.28;5124341;28;20038;-74
2023/06/30 10:19:52;;;;;;;6.25;3.50;;;;;;;19.44;100.00;100312.84;5136463;28;20023;-75
2023/06/30 10:22:23;;;;;;;6.47;3.83;;;;;;;19.77;100.00;100301.47;5147530;28;20416;-75
2023/06/30 10:24:55;;;;;;;6.55;3.72;;;;;;;20.02;100.00;100310.09;5138929;28;20034;-76
2023/06/30 10:27:25;;;;;;;5.85;3.42;;;;;;;20.10;100.00;100307.66;5128503;28;20034;-74
2023/06/30 10:29:56;;;;;;;4.68;3.05;;;;;;;20.09;100.00;100308.63;5146816;28;20018;-75
2023/06/30 10:32:27;;;;;;;6.25;3.22;;;;;;;19.85;100.00;100307.03;5144093;28;20538;-75
2023/06/30 10:34:59;;;;;;;6.50;3.10;;;;;;;20.10;100.00;100317.44;5126500;28;20556;-74
2023/06/30 10:37:29;;;;;;;5.13;2.85;;;;;;;20.17;100.00;100318.66;5139667;28;20034;-73
2023/06/30 10:40:00;;;;;;;3.42;2.75;;;;;;;20.10;100.00;100312.97;5141196;28;20029;-76
2023/06/30 10:42:36;;;;;;;4.43;2.97;;;;;;;20.35;100.00;100307.44;5143548;28;20033;-74
2023/06/30 10:45:07;;;;;;;7.97;3.10;;;;;;;20.32;100.00;100307.66;5138842;28;20038;-74
2023/06/30 10:47:39;;;;;;;4.85;2.80;;;;;;;20.68;100.00;100310.84;5125573;28;20467;-74
2023/06/30 10:50:13;;;;;;;5.32;2.72;;;;;;;20.45;100.00;100308.38;5143598;28;20035;-74
2023/06/30 10:52:52;;;;;;;3.95;2.78;;;;;;;20.75;100.00;100303.22;5115203;28;20274;-75
2023/06/30 10:55:26;;;;;;;5.40;2.55;;;;;;;20.91;100.00;100306.38;5128009;28;20069;-75
2023/06/30 10:57:57;;;;;;;3.72;2.40;;;;;;;20.90;100.00;100304.69;5132672;28;20489;-75
2023/06/30 11:00:31;;;;;;;3.20;2.53;;;;;;;20.86;100.00;100300.59;5141265;28;20042;-74
2023/06/30 11:03:04;;;;;;;4.57;2.40;;;;;;;20.94;100.00;100298.13;5119696;28;20035;-75
2023/06/30 11:05:35;;;;;;;4.57;2.20;;;;;;;20.95;100.00;100302.47;5120133;28;20034;-75
2023/06/30 11:08:10;;;;;;;4.13;1.90;;;;;;;20.85;100.00;100301.53;5132767;28;20029;-73
2023/06/30 11:10:45;;;;;;;5.05;2.00;;;;;;;20.52;100.00;100298.97;5118374;28;20497;-74
2023/06/30 11:13:35;;;;;;;3.33;2.13;;;;;;;20.41;100.00;100298.09;5135245;28;20026;-73
2023/06/30 11:16:05;;;;;;;8.15;2.70;;;;;;;20.07;100.00;100289.34;5139856;28;20031;-76
2023/06/30 11:18:38;;;;;;;3.70;2.28;;;;;;;20.26;100.00;100297.53;5136771;28;20034;-75
2023/06/30 11:21:09;;;;;;;3.90;2.30;;;;;;;20.01;100.00;100305.72;5135875;28;20431;-73
2023/06/30 11:23:39;;;;;;;3.70;2.30;;;;;;;19.89;100.00;100309.31;5136100;28;20643;-74
2023/06/30 11:26:14;;;;;;;4.68;2.25;;;;;;;19.67;100.00;100308.44;5118580;28;20026;-74
2023/06/30 11:28:49;;;;;;;2.97;1.85;;;;;;;19.53;100.00;100309.50;5117004;28;20034;-75